sensor_id;sensor_type;location;lat;lon;timestamp;temperature;humidity
11126;DHT22;5617;54.046;10.676;2023-06-14T00:01:05;14.30;99.90
11126;DHT22;5617;54.046;10.676;2023-06-14T00:03:13;14.30;99.90
11126;DHT22;5617;54.046;10.676;2023-06-14T00:05:23;14.30;99.90
11126;DHT22;5617;54.046;10.676;2023-06-14T00:07:35;14.30;99.90
11126;DHT22;5617;54.046;10.676;2023-06-14T00:09:43;14.30;99.90
11126;DHT22;5617;54.046;10.676;2023-06-14T00:11:50;14.30;99.90
11126;DHT22;5617;54.046;10.676;2023-06-14T00:14:00;14.30;99.90
11126;DHT22;5617;54.046;10.676;2023-06-14T00:16:09;14.30;99.90
11126;DHT22;5617;54.046;10.676;2023-06-14T00:18:16;14.40;99.90
11126;DHT22;5617;54.046;10.676;2023-06-14T00:20:24;14.30;99.90
11126;DHT22;5617;54.046;10.676;2023-06-14T00:22:33;14.30;99.90
11126;DHT22;5617;54.046;10.676;2023-06-14T00:24:42;14.30;99.90
11126;DHT22;5617;54.046;10.676;2023-06-14T00:26:50;14.30;99.90
11126;DHT22;5617;54.046;10.676;2023-06-14T00:28:57;14.30;99.90
11126;DHT22;5617;54.046;10.676;2023-06-14T00:31:06;14.30;99.90
11126;DHT22;5617;54.046;10.676;2023-06-14T00:33:14;14.30;99.90
11126;DHT22;5617;54.046;10.676;2023-06-14T00:35:26;14.40;99.90
11126;DHT22;5617;54.046;10.676;2023-06-14T00:40:55;14.30;99.90
11126;DHT22;5617;54.046;10.676;2023-06-14T00:43:04;14.30;99.90
11126;DHT22;5617;54.046;10.676;2023-06-14T00:45:13;14.30;99.90
11126;DHT22;5617;54.046;10.676;2023-06-14T00:47:26;14.30;99.90
11126;DHT22;5617;54.046;10.676;2023-06-14T00:49:38;14.30;99.90
11126;DHT22;5617;54.046;10.676;2023-06-14T00:51:47;14.30;99.90
11126;DHT22;5617;54.046;10.676;2023-06-14T00:53:58;14.30;99.90
11126;DHT22;5617;54.046;10.676;2023-06-14T00:56:07;14.30;99.90
11126;DHT22;5617;54.046;10.676;2023-06-14T00:58:17;14.20;99.90
11126;DHT22;5617;54.046;10.676;2023-06-14T01:00:26;14.30;99.90
11126;DHT22;5617;54.046;10.676;2023-06-14T01:02:38;14.20;99.90
11126;DHT22;5617;54.046;10.676;2023-06-14T01:04:47;14.20;99.90
11126;DHT22;5617;54.046;10.676;2023-06-14T01:07:02;14.30;99.90
11126;DHT22;5617;54.046;10.676;2023-06-14T01:09:27;14.20;99.90
11126;DHT22;5617;54.046;10.676;2023-06-14T01:11:45;14.20;99.90
11126;DHT22;5617;54.046;10.676;2023-06-14T01:13:56;14.20;99.90
11126;DHT22;5617;54.046;10.676;2023-06-14T01:16:05;14.20;99.90
11126;DHT22;5617;54.046;10.676;2023-06-14T01:18:17;14.20;99.90
11126;DHT22;5617;54.046;10.676;2023-06-14T01:20:29;14.20;99.90
11126;DHT22;5617;54.046;10.676;2023-06-14T01:22:37;14.20;99.90
11126;DHT22;5617;54.046;10.676;2023-06-14T01:24:47;14.20;99.90
11126;DHT22;5617;54.046;10.676;2023-06-14T01:26:57;14.20;99.90
11126;DHT22;5617;54.046;10.676;2023-06-14T01:29:05;14.20;99.90
11126;DHT22;5617;54.046;10.676;2023-06-14T01:31:17;14.20;99.90
11126;DHT22;5617;54.046;10.676;2023-06-14T01:33:27;14.30;99.90
11126;DHT22;5617;54.046;10.676;2023-06-14T01:35:37;14.30;99.90
11126;DHT22;5617;54.046;10.676;2023-06-14T01:38:13;14.10;99.90
11126;DHT22;5617;54.046;10.676;2023-06-14T01:40:24;14.10;99.90
11126;DHT22;5617;54.046;10.676;2023-06-14T01:42:33;14.10;99.90
11126;DHT22;5617;54.046;10.676;2023-06-14T01:44:42;14.10;99.90
11126;DHT22;5617;54.046;10.676;2023-06-14T01:46:50;14.10;99.90
11126;DHT22;5617;54.046;10.676;2023-06-14T01:49:00;14.00;99.90
11126;DHT22;5617;54.046;10.676;2023-06-14T01:51:09;14.00;99.90
11126;DHT22;5617;54.046;10.676;2023-06-14T01:53:17;14.00;99.90
11126;DHT22;5617;54.046;10.676;2023-06-14T01:55:27;14.00;99.90
11126;DHT22;5617;54.046;10.676;2023-06-14T01:57:37;13.90;99.90
11126;DHT22;5617;54.046;10.676;2023-06-14T01:59:46;13.90;99.90
11126;DHT22;5617;54.046;10.676;2023-06-14T02:01:54;13.90;99.90
11126;DHT22;5617;54.046;10.676;2023-06-14T02:04:04;13.90;99.90
11126;DHT22;5617;54.046;10.676;2023-06-14T02:06:13;13.90;99.90
11126;DHT22;5617;54.046;10.676;2023-06-14T02:08:22;13.90;99.90
11126;DHT22;5617;54.046;10.676;2023-06-14T02:10:33;13.90;99.90
11126;DHT22;5617;54.046;10.676;2023-06-14T02:12:44;13.90;99.90
11126;DHT22;5617;54.046;10.676;2023-06-14T02:14:52;13.90;99.90
11126;DHT22;5617;54.046;10.676;2023-06-14T02:17:00;13.90;99.90
11126;DHT22;5617;54.046;10.676;2023-06-14T02:19:08;13.90;99.90
11126;DHT22;5617;54.046;10.676;2023-06-14T02:21:17;13.90;99.90
11126;DHT22;5617;54.046;10.676;2023-06-14T02:23:26;13.90;99.90
11126;DHT22;5617;54.046;10.676;2023-06-14T02:25:37;13.90;99.90
11126;DHT22;5617;54.046;10.676;2023-06-14T02:27:47;13.90;99.90
11126;DHT22;5617;54.046;10.676;2023-06-14T02:29:54;13.90;99.90
11126;DHT22;5617;54.046;10.676;2023-06-14T02:32:02;13.90;99.90
11126;DHT22;5617;54.046;10.676;2023-06-14T02:34:14;13.80;99.90
11126;DHT22;5617;54.046;10.676;2023-06-14T02:36:23;13.80;99.90
11126;DHT22;5617;54.046;10.676;2023-06-14T02:38:31;13.90;99.90
11126;DHT22;5617;54.046;10.676;2023-06-14T02:40:40;13.80;99.90
11126;DHT22;5617;54.046;10.676;2023-06-14T02:42:48;13.80;99.90
11126;DHT22;5617;54.046;10.676;2023-06-14T02:44:55;13.80;99.90
11126;DHT22;5617;54.046;10.676;2023-06-14T02:47:04;13.80;99.90
11126;DHT22;5617;54.046;10.676;2023-06-14T02:49:12;13.80;99.90
11126;DHT22;5617;54.046;10.676;2023-06-14T02:51:20;13.80;99.90
11126;DHT22;5617;54.046;10.676;2023-06-14T02:53:28;13.80;99.90
11126;DHT22;5617;54.046;10.676;2023-06-14T02:55:42;13.70;99.90
11126;DHT22;5617;54.046;10.676;2023-06-14T02:57:51;13.80;99.90
11126;DHT22;5617;54.046;10.676;2023-06-14T03:00:00;13.70;99.90
11126;DHT22;5617;54.046;10.676;2023-06-14T03:02:09;13.70;99.90
11126;DHT22;5617;54.046;10.676;2023-06-14T03:04:18;13.70;99.90
11126;DHT22;5617;54.046;10.676;2023-06-14T03:06:26;13.70;99.90
11126;DHT22;5617;54.046;10.676;2023-06-14T03:08:36;13.70;99.90
11126;DHT22;5617;54.046;10.676;2023-06-14T03:10:48;13.70;99.90
11126;DHT22;5617;54.046;10.676;2023-06-14T03:12:57;13.70;99.90
11126;DHT22;5617;54.046;10.676;2023-06-14T03:15:06;13.60;99.90
11126;DHT22;5617;54.046;10.676;2023-06-14T03:17:16;13.70;99.90
11126;DHT22;5617;54.046;10.676;2023-06-14T03:19:26;13.60;99.90
11126;DHT22;5617;54.046;10.676;2023-06-14T03:21:35;13.60;99.90
11126;DHT22;5617;54.046;10.676;2023-06-14T03:23:43;13.70;99.90
11126;DHT22;5617;54.046;10.676;2023-06-14T03:25:53;13.70;99.90
11126;DHT22;5617;54.046;10.676;2023-06-14T03:28:03;13.70;99.90
11126;DHT22;5617;54.046;10.676;2023-06-14T03:30:12;13.70;99.90
11126;DHT22;5617;54.046;10.676;2023-06-14T03:32:20;13.70;99.90
11126;DHT22;5617;54.046;10.676;2023-06-14T03:34:30;13.70;99.90
11126;DHT22;5617;54.046;10.676;2023-06-14T03:36:39;13.70;99.90
11126;DHT22;5617;54.046;10.676;2023-06-14T03:38:47;13.80;99.90
11126;DHT22;5617;54.046;10.676;2023-06-14T03:40:57;13.80;99.90
11126;DHT22;5617;54.046;10.676;2023-06-14T03:43:05;13.80;99.90
11126;DHT22;5617;54.046;10.676;2023-06-14T03:45:13;13.80;99.90
11126;DHT22;5617;54.046;10.676;2023-06-14T03:47:23;13.80;99.90
11126;DHT22;5617;54.046;10.676;2023-06-14T03:49:31;13.90;99.90
11126;DHT22;5617;54.046;10.676;2023-06-14T03:51:39;13.90;99.90
11126;DHT22;5617;54.046;10.676;2023-06-14T03:53:50;13.90;99.90
11126;DHT22;5617;54.046;10.676;2023-06-14T03:56:18;13.90;99.90
11126;DHT22;5617;54.046;10.676;2023-06-14T03:58:27;14.00;99.90
11126;DHT22;5617;54.046;10.676;2023-06-14T04:00:37;14.00;99.90
11126;DHT22;5617;54.046;10.676;2023-06-14T04:02:46;14.00;99.90
11126;DHT22;5617;54.046;10.676;2023-06-14T04:04:54;14.00;99.90
11126;DHT22;5617;54.046;10.676;2023-06-14T04:07:02;14.10;99.90
11126;DHT22;5617;54.046;10.676;2023-06-14T04:09:10;14.10;99.90
11126;DHT22;5617;54.046;10.676;2023-06-14T04:11:19;14.20;99.90
11126;DHT22;5617;54.046;10.676;2023-06-14T04:13:27;14.20;99.90
11126;DHT22;5617;54.046;10.676;2023-06-14T04:15:40;14.20;99.90
11126;DHT22;5617;54.046;10.676;2023-06-14T04:18:05;14.30;99.90
11126;DHT22;5617;54.046;10.676;2023-06-14T04:20:13;14.30;99.90
11126;DHT22;5617;54.046;10.676;2023-06-14T04:22:20;14.50;99.90
11126;DHT22;5617;54.046;10.676;2023-06-14T04:24:29;14.40;99.90
11126;DHT22;5617;54.046;10.676;2023-06-14T04:26:40;14.50;99.90
11126;DHT22;5617;54.046;10.676;2023-06-14T04:32:23;14.90;99.90
11126;DHT22;5617;54.046;10.676;2023-06-14T04:34:32;15.60;99.90
11126;DHT22;5617;54.046;10.676;2023-06-14T04:36:40;16.20;99.90
11126;DHT22;5617;54.046;10.676;2023-06-14T04:38:57;16.70;99.90
11126;DHT22;5617;54.046;10.676;2023-06-14T04:41:11;17.20;99.90
11126;DHT22;5617;54.046;10.676;2023-06-14T04:43:20;17.60;99.90
11126;DHT22;5617;54.046;10.676;2023-06-14T04:45:32;17.90;99.90
11126;DHT22;5617;54.046;10.676;2023-06-14T04:47:40;18.00;99.90
11126;DHT22;5617;54.046;10.676;2023-06-14T04:49:48;18.00;99.90
11126;DHT22;5617;54.046;10.676;2023-06-14T04:51:57;18.20;99.90
11126;DHT22;5617;54.046;10.676;2023-06-14T04:54:05;18.20;99.90
11126;DHT22;5617;54.046;10.676;2023-06-14T04:56:16;18.30;99.90
11126;DHT22;5617;54.046;10.676;2023-06-14T04:58:28;18.20;99.90
11126;DHT22;5617;54.046;10.676;2023-06-14T05:00:36;18.20;99.90
11126;DHT22;5617;54.046;10.676;2023-06-14T05:02:44;18.20;99.90
11126;DHT22;5617;54.046;10.676;2023-06-14T05:05:00;18.10;99.90
11126;DHT22;5617;54.046;10.676;2023-06-14T05:07:09;18.00;99.90
11126;DHT22;5617;54.046;10.676;2023-06-14T05:09:22;17.90;99.90
11126;DHT22;5617;54.046;10.676;2023-06-14T05:11:30;17.90;99.90
11126;DHT22;5617;54.046;10.676;2023-06-14T05:13:40;18.00;99.90
11126;DHT22;5617;54.046;10.676;2023-06-14T05:15:48;17.90;99.90
11126;DHT22;5617;54.046;10.676;2023-06-14T05:17:56;17.90;99.90
11126;DHT22;5617;54.046;10.676;2023-06-14T05:20:07;17.90;99.90
11126;DHT22;5617;54.046;10.676;2023-06-14T05:22:16;17.90;99.90
11126;DHT22;5617;54.046;10.676;2023-06-14T05:24:24;18.00;99.90
11126;DHT22;5617;54.046;10.676;2023-06-14T05:26:36;18.00;99.90
11126;DHT22;5617;54.046;10.676;2023-06-14T05:28:45;18.10;99.90
11126;DHT22;5617;54.046;10.676;2023-06-14T05:30:52;18.10;99.90
11126;DHT22;5617;54.046;10.676;2023-06-14T05:33:02;18.10;99.90
11126;DHT22;5617;54.046;10.676;2023-06-14T05:35:10;18.10;99.90
11126;DHT22;5617;54.046;10.676;2023-06-14T05:37:20;18.10;99.90
11126;DHT22;5617;54.046;10.676;2023-06-14T05:39:28;18.20;99.90
11126;DHT22;5617;54.046;10.676;2023-06-14T05:41:35;18.20;99.90
11126;DHT22;5617;54.046;10.676;2023-06-14T05:43:45;18.40;99.90
11126;DHT22;5617;54.046;10.676;2023-06-14T05:45:53;18.40;99.90
11126;DHT22;5617;54.046;10.676;2023-06-14T05:48:02;18.60;99.90
11126;DHT22;5617;54.046;10.676;2023-06-14T05:50:10;18.60;99.90
11126;DHT22;5617;54.046;10.676;2023-06-14T05:52:18;18.70;99.90
11126;DHT22;5617;54.046;10.676;2023-06-14T05:54:30;18.80;99.90
11126;DHT22;5617;54.046;10.676;2023-06-14T05:56:38;18.90;99.90
11126;DHT22;5617;54.046;10.676;2023-06-14T05:58:46;19.10;99.90
11126;DHT22;5617;54.046;10.676;2023-06-14T06:00:57;19.20;99.90
11126;DHT22;5617;54.046;10.676;2023-06-14T06:03:05;19.30;99.90
11126;DHT22;5617;54.046;10.676;2023-06-14T06:05:15;19.30;99.90
11126;DHT22;5617;54.046;10.676;2023-06-14T06:07:24;19.50;99.90
11126;DHT22;5617;54.046;10.676;2023-06-14T06:09:35;19.50;99.90
11126;DHT22;5617;54.046;10.676;2023-06-14T06:11:43;19.50;99.90
11126;DHT22;5617;54.046;10.676;2023-06-14T06:14:01;19.70;99.90
11126;DHT22;5617;54.046;10.676;2023-06-14T06:16:09;19.90;99.90
11126;DHT22;5617;54.046;10.676;2023-06-14T06:18:18;19.90;99.90
11126;DHT22;5617;54.046;10.676;2023-06-14T06:20:26;19.90;99.90
11126;DHT22;5617;54.046;10.676;2023-06-14T06:22:40;20.00;99.90
11126;DHT22;5617;54.046;10.676;2023-06-14T06:24:47;20.10;99.90
11126;DHT22;5617;54.046;10.676;2023-06-14T06:26:55;20.10;99.90
11126;DHT22;5617;54.046;10.676;2023-06-14T06:29:09;20.30;99.90
11126;DHT22;5617;54.046;10.676;2023-06-14T06:31:16;20.40;99.90
11126;DHT22;5617;54.046;10.676;2023-06-14T06:33:24;20.40;99.70
11126;DHT22;5617;54.046;10.676;2023-06-14T06:35:33;20.40;99.80
11126;DHT22;5617;54.046;10.676;2023-06-14T06:37:44;20.60;99.80
11126;DHT22;5617;54.046;10.676;2023-06-14T06:39:51;20.70;99.60
11126;DHT22;5617;54.046;10.676;2023-06-14T06:41:59;20.90;99.40
11126;DHT22;5617;54.046;10.676;2023-06-14T06:44:06;21.20;99.20
11126;DHT22;5617;54.046;10.676;2023-06-14T06:46:15;21.30;98.70
11126;DHT22;5617;54.046;10.676;2023-06-14T06:48:24;21.30;98.50
11126;DHT22;5617;54.046;10.676;2023-06-14T06:50:32;21.40;98.40
11126;DHT22;5617;54.046;10.676;2023-06-14T06:52:39;21.50;98.10
11126;DHT22;5617;54.046;10.676;2023-06-14T06:54:48;21.60;98.00
11126;DHT22;5617;54.046;10.676;2023-06-14T06:56:58;21.70;97.80
11126;DHT22;5617;54.046;10.676;2023-06-14T06:59:06;21.80;97.60
11126;DHT22;5617;54.046;10.676;2023-06-14T07:01:15;21.90;97.40
11126;DHT22;5617;54.046;10.676;2023-06-14T07:03:22;22.00;97.40
11126;DHT22;5617;54.046;10.676;2023-06-14T07:05:33;22.20;97.20
11126;DHT22;5617;54.046;10.676;2023-06-14T07:07:41;22.30;97.10
11126;DHT22;5617;54.046;10.676;2023-06-14T07:09:50;22.40;96.60
11126;DHT22;5617;54.046;10.676;2023-06-14T07:11:59;22.60;96.50
11126;DHT22;5617;54.046;10.676;2023-06-14T07:14:07;22.70;96.10
11126;DHT22;5617;54.046;10.676;2023-06-14T07:16:16;22.80;95.90
11126;DHT22;5617;54.046;10.676;2023-06-14T07:18:23;23.00;95.60
11126;DHT22;5617;54.046;10.676;2023-06-14T07:20:34;23.00;95.70
11126;DHT22;5617;54.046;10.676;2023-06-14T07:22:44;23.20;95.20
11126;DHT22;5617;54.046;10.676;2023-06-14T07:24:52;23.20;94.90
11126;DHT22;5617;54.046;10.676;2023-06-14T07:26:59;23.30;94.70
11126;DHT22;5617;54.046;10.676;2023-06-14T07:29:07;23.40;94.60
11126;DHT22;5617;54.046;10.676;2023-06-14T07:31:16;23.50;94.10
11126;DHT22;5617;54.046;10.676;2023-06-14T07:33:25;23.60;94.20
11126;DHT22;5617;54.046;10.676;2023-06-14T07:35:36;23.70;93.90
11126;DHT22;5617;54.046;10.676;2023-06-14T07:37:45;23.70;93.80
11126;DHT22;5617;54.046;10.676;2023-06-14T07:39:54;23.70;93.50
11126;DHT22;5617;54.046;10.676;2023-06-14T07:42:01;23.50;93.20
11126;DHT22;5617;54.046;10.676;2023-06-14T07:44:12;23.60;93.30
11126;DHT22;5617;54.046;10.676;2023-06-14T07:46:21;23.70;93.40
11126;DHT22;5617;54.046;10.676;2023-06-14T07:48:28;23.70;93.30
11126;DHT22;5617;54.046;10.676;2023-06-14T07:50:36;23.70;93.20
11126;DHT22;5617;54.046;10.676;2023-06-14T07:52:44;23.80;93.20
11126;DHT22;5617;54.046;10.676;2023-06-14T07:54:53;23.80;93.70
11126;DHT22;5617;54.046;10.676;2023-06-14T07:57:05;23.90;93.60
11126;DHT22;5617;54.046;10.676;2023-06-14T07:59:15;24.00;93.40
11126;DHT22;5617;54.046;10.676;2023-06-14T08:01:24;24.00;93.20
11126;DHT22;5617;54.046;10.676;2023-06-14T08:03:34;24.10;93.00
11126;DHT22;5617;54.046;10.676;2023-06-14T08:05:42;24.10;93.10
11126;DHT22;5617;54.046;10.676;2023-06-14T08:07:50;24.20;93.10
11126;DHT22;5617;54.046;10.676;2023-06-14T08:09:58;24.30;93.10
11126;DHT22;5617;54.046;10.676;2023-06-14T08:12:07;24.40;92.80
11126;DHT22;5617;54.046;10.676;2023-06-14T08:14:16;24.30;92.90
11126;DHT22;5617;54.046;10.676;2023-06-14T08:16:26;24.30;92.90
11126;DHT22;5617;54.046;10.676;2023-06-14T08:18:34;24.30;92.90
11126;DHT22;5617;54.046;10.676;2023-06-14T08:20:44;24.40;92.90
11126;DHT22;5617;54.046;10.676;2023-06-14T08:22:52;24.40;93.00
11126;DHT22;5617;54.046;10.676;2023-06-14T08:25:04;24.60;93.10
11126;DHT22;5617;54.046;10.676;2023-06-14T08:27:14;24.60;92.70
11126;DHT22;5617;54.046;10.676;2023-06-14T08:29:22;24.50;92.80
11126;DHT22;5617;54.046;10.676;2023-06-14T08:31:34;24.50;92.80
11126;DHT22;5617;54.046;10.676;2023-06-14T08:33:42;24.50;92.60
11126;DHT22;5617;54.046;10.676;2023-06-14T08:35:50;24.40;92.40
11126;DHT22;5617;54.046;10.676;2023-06-14T08:37:58;24.30;92.40
11126;DHT22;5617;54.046;10.676;2023-06-14T08:40:17;24.40;92.50
11126;DHT22;5617;54.046;10.676;2023-06-14T08:42:28;24.40;92.40
11126;DHT22;5617;54.046;10.676;2023-06-14T08:44:38;24.40;92.50
11126;DHT22;5617;54.046;10.676;2023-06-14T08:46:48;24.30;92.60
11126;DHT22;5617;54.046;10.676;2023-06-14T08:48:57;24.50;92.40
11126;DHT22;5617;54.046;10.676;2023-06-14T08:51:07;24.40;92.40
11126;DHT22;5617;54.046;10.676;2023-06-14T08:53:19;24.40;92.20
11126;DHT22;5617;54.046;10.676;2023-06-14T08:55:29;24.50;92.00
11126;DHT22;5617;54.046;10.676;2023-06-14T08:57:42;24.50;91.90
11126;DHT22;5617;54.046;10.676;2023-06-14T08:59:52;24.40;91.90
11126;DHT22;5617;54.046;10.676;2023-06-14T09:02:03;24.50;91.80
11126;DHT22;5617;54.046;10.676;2023-06-14T09:04:20;24.60;91.90
11126;DHT22;5617;54.046;10.676;2023-06-14T09:06:29;24.60;91.80
11126;DHT22;5617;54.046;10.676;2023-06-14T09:08:41;24.60;91.60
11126;DHT22;5617;54.046;10.676;2023-06-14T09:10:50;24.70;91.60
11126;DHT22;5617;54.046;10.676;2023-06-14T09:12:59;24.80;91.30
11126;DHT22;5617;54.046;10.676;2023-06-14T09:15:09;24.80;91.30
11126;DHT22;5617;54.046;10.676;2023-06-14T09:17:18;24.80;91.30
11126;DHT22;5617;54.046;10.676;2023-06-14T09:19:28;24.90;91.10
11126;DHT22;5617;54.046;10.676;2023-06-14T09:21:41;24.90;91.00
11126;DHT22;5617;54.046;10.676;2023-06-14T09:23:49;24.90;90.80
11126;DHT22;5617;54.046;10.676;2023-06-14T09:25:57;25.00;90.80
11126;DHT22;5617;54.046;10.676;2023-06-14T09:28:06;25.20;90.70
11126;DHT22;5617;54.046;10.676;2023-06-14T09:30:15;25.40;90.30
11126;DHT22;5617;54.046;10.676;2023-06-14T09:32:24;25.60;89.90
11126;DHT22;5617;54.046;10.676;2023-06-14T09:34:33;25.70;88.80
11126;DHT22;5617;54.046;10.676;2023-06-14T09:36:42;25.70;88.40
11126;DHT22;5617;54.046;10.676;2023-06-14T09:38:53;25.80;87.20
11126;DHT22;5617;54.046;10.676;2023-06-14T09:41:03;25.90;86.70
11126;DHT22;5617;54.046;10.676;2023-06-14T09:43:12;26.00;86.20
11126;DHT22;5617;54.046;10.676;2023-06-14T09:45:20;26.10;87.10
11126;DHT22;5617;54.046;10.676;2023-06-14T09:47:30;26.00;86.00
11126;DHT22;5617;54.046;10.676;2023-06-14T09:49:42;26.20;85.80
11126;DHT22;5617;54.046;10.676;2023-06-14T09:51:51;26.20;85.20
11126;DHT22;5617;54.046;10.676;2023-06-14T09:54:02;26.20;85.50
11126;DHT22;5617;54.046;10.676;2023-06-14T09:56:12;26.30;85.20
11126;DHT22;5617;54.046;10.676;2023-06-14T09:58:28;26.20;85.40
11126;DHT22;5617;54.046;10.676;2023-06-14T10:00:39;26.30;86.30
11126;DHT22;5617;54.046;10.676;2023-06-14T10:02:53;26.40;85.60
11126;DHT22;5617;54.046;10.676;2023-06-14T10:05:04;26.20;85.20
11126;DHT22;5617;54.046;10.676;2023-06-14T10:07:18;26.20;85.70
11126;DHT22;5617;54.046;10.676;2023-06-14T10:09:27;26.30;84.40
11126;DHT22;5617;54.046;10.676;2023-06-14T10:11:40;26.40;83.90
11126;DHT22;5617;54.046;10.676;2023-06-14T10:13:51;26.30;83.80
11126;DHT22;5617;54.046;10.676;2023-06-14T10:16:05;26.40;83.10
11126;DHT22;5617;54.046;10.676;2023-06-14T10:18:22;26.40;83.00
11126;DHT22;5617;54.046;10.676;2023-06-14T10:20:37;26.70;82.60
11126;DHT22;5617;54.046;10.676;2023-06-14T10:22:51;26.80;82.10
11126;DHT22;5617;54.046;10.676;2023-06-14T10:25:02;27.10;80.40
11126;DHT22;5617;54.046;10.676;2023-06-14T10:27:10;27.30;80.40
11126;DHT22;5617;54.046;10.676;2023-06-14T10:29:20;27.40;80.10
11126;DHT22;5617;54.046;10.676;2023-06-14T10:31:41;27.20;79.50
11126;DHT22;5617;54.046;10.676;2023-06-14T10:33:56;27.20;79.30
11126;DHT22;5617;54.046;10.676;2023-06-14T10:36:24;27.40;78.00
11126;DHT22;5617;54.046;10.676;2023-06-14T10:38:37;27.40;77.90
11126;DHT22;5617;54.046;10.676;2023-06-14T10:40:52;27.40;78.70
11126;DHT22;5617;54.046;10.676;2023-06-14T10:43:21;27.50;79.40
11126;DHT22;5617;54.046;10.676;2023-06-14T10:45:29;27.60;78.60
11126;DHT22;5617;54.046;10.676;2023-06-14T10:47:37;27.50;78.60
11126;DHT22;5617;54.046;10.676;2023-06-14T10:49:51;27.60;77.60
11126;DHT22;5617;54.046;10.676;2023-06-14T10:51:59;27.60;76.70
11126;DHT22;5617;54.046;10.676;2023-06-14T10:54:11;27.70;77.30
11126;DHT22;5617;54.046;10.676;2023-06-14T10:56:24;27.80;76.60
11126;DHT22;5617;54.046;10.676;2023-06-14T10:58:34;27.70;74.90
11126;DHT22;5617;54.046;10.676;2023-06-14T11:00:45;27.60;75.50
11126;DHT22;5617;54.046;10.676;2023-06-14T11:03:21;27.70;74.40
11126;DHT22;5617;54.046;10.676;2023-06-14T11:05:48;27.80;73.10
11126;DHT22;5617;54.046;10.676;2023-06-14T11:10:36;28.00;73.80
11126;DHT22;5617;54.046;10.676;2023-06-14T11:12:47;28.00;73.90
11126;DHT22;5617;54.046;10.676;2023-06-14T11:14:57;28.00;72.40
11126;DHT22;5617;54.046;10.676;2023-06-14T11:17:05;27.90;71.70
11126;DHT22;5617;54.046;10.676;2023-06-14T11:19:13;27.90;71.60
11126;DHT22;5617;54.046;10.676;2023-06-14T11:21:22;27.90;71.20
11126;DHT22;5617;54.046;10.676;2023-06-14T11:23:31;27.90;71.20
11126;DHT22;5617;54.046;10.676;2023-06-14T11:25:39;28.00;71.30
11126;DHT22;5617;54.046;10.676;2023-06-14T11:27:49;28.20;71.30
11126;DHT22;5617;54.046;10.676;2023-06-14T11:29:57;28.40;71.00
11126;DHT22;5617;54.046;10.676;2023-06-14T11:32:07;28.40;71.10
11126;DHT22;5617;54.046;10.676;2023-06-14T11:34:18;28.40;69.20
11126;DHT22;5617;54.046;10.676;2023-06-14T11:36:28;28.20;69.30
11126;DHT22;5617;54.046;10.676;2023-06-14T11:38:38;28.20;69.70
11126;DHT22;5617;54.046;10.676;2023-06-14T11:40:46;28.40;69.40
11126;DHT22;5617;54.046;10.676;2023-06-14T11:42:58;28.50;69.10
11126;DHT22;5617;54.046;10.676;2023-06-14T11:45:11;28.60;69.70
11126;DHT22;5617;54.046;10.676;2023-06-14T11:47:19;28.70;70.90
11126;DHT22;5617;54.046;10.676;2023-06-14T11:49:27;28.80;69.80
11126;DHT22;5617;54.046;10.676;2023-06-14T11:51:36;28.90;68.80
11126;DHT22;5617;54.046;10.676;2023-06-14T11:53:45;29.00;68.40
11126;DHT22;5617;54.046;10.676;2023-06-14T11:55:53;28.80;68.30
11126;DHT22;5617;54.046;10.676;2023-06-14T11:58:01;28.80;68.20
11126;DHT22;5617;54.046;10.676;2023-06-14T12:00:11;28.80;67.90
11126;DHT22;5617;54.046;10.676;2023-06-14T12:02:21;28.80;67.10
11126;DHT22;5617;54.046;10.676;2023-06-14T12:04:32;28.90;67.60
11126;DHT22;5617;54.046;10.676;2023-06-14T12:06:42;29.00;67.50
11126;DHT22;5617;54.046;10.676;2023-06-14T12:08:51;29.10;67.80
11126;DHT22;5617;54.046;10.676;2023-06-14T12:11:03;29.10;67.60
11126;DHT22;5617;54.046;10.676;2023-06-14T12:13:11;29.00;67.00
11126;DHT22;5617;54.046;10.676;2023-06-14T12:15:19;29.00;66.60
11126;DHT22;5617;54.046;10.676;2023-06-14T12:17:32;28.90;66.80
11126;DHT22;5617;54.046;10.676;2023-06-14T12:19:43;28.80;65.20
11126;DHT22;5617;54.046;10.676;2023-06-14T12:21:54;28.80;65.10
11126;DHT22;5617;54.046;10.676;2023-06-14T12:24:03;28.60;63.70
11126;DHT22;5617;54.046;10.676;2023-06-14T12:26:14;28.50;63.50
11126;DHT22;5617;54.046;10.676;2023-06-14T12:28:31;28.50;63.20
11126;DHT22;5617;54.046;10.676;2023-06-14T12:30:40;28.30;60.80
11126;DHT22;5617;54.046;10.676;2023-06-14T12:32:48;28.20;60.00
11126;DHT22;5617;54.046;10.676;2023-06-14T12:34:58;28.10;60.10
11126;DHT22;5617;54.046;10.676;2023-06-14T12:37:10;28.20;59.90
11126;DHT22;5617;54.046;10.676;2023-06-14T12:39:18;28.10;60.10
11126;DHT22;5617;54.046;10.676;2023-06-14T12:41:29;28.00;61.40
11126;DHT22;5617;54.046;10.676;2023-06-14T12:43:38;28.00;61.10
11126;DHT22;5617;54.046;10.676;2023-06-14T12:45:46;28.10;59.40
11126;DHT22;5617;54.046;10.676;2023-06-14T12:47:56;27.90;59.80
11126;DHT22;5617;54.046;10.676;2023-06-14T12:50:06;28.00;60.50
11126;DHT22;5617;54.046;10.676;2023-06-14T12:52:16;28.20;59.90
11126;DHT22;5617;54.046;10.676;2023-06-14T12:54:24;27.90;57.70
11126;DHT22;5617;54.046;10.676;2023-06-14T12:56:47;27.90;58.00
11126;DHT22;5617;54.046;10.676;2023-06-14T12:58:58;28.00;58.00
11126;DHT22;5617;54.046;10.676;2023-06-14T13:01:06;28.10;58.00
11126;DHT22;5617;54.046;10.676;2023-06-14T13:03:15;28.00;57.30
11126;DHT22;5617;54.046;10.676;2023-06-14T13:05:23;28.10;57.20
11126;DHT22;5617;54.046;10.676;2023-06-14T13:07:33;28.10;56.70
11126;DHT22;5617;54.046;10.676;2023-06-14T13:09:41;28.10;56.00
11126;DHT22;5617;54.046;10.676;2023-06-14T13:11:49;28.00;55.90
11126;DHT22;5617;54.046;10.676;2023-06-14T13:13:57;28.00;56.40
11126;DHT22;5617;54.046;10.676;2023-06-14T13:16:09;28.20;56.60
11126;DHT22;5617;54.046;10.676;2023-06-14T13:18:17;28.30;56.80
11126;DHT22;5617;54.046;10.676;2023-06-14T13:20:25;28.20;56.80
11126;DHT22;5617;54.046;10.676;2023-06-14T13:22:37;28.20;57.10
11126;DHT22;5617;54.046;10.676;2023-06-14T13:24:46;28.30;56.70
11126;DHT22;5617;54.046;10.676;2023-06-14T13:26:54;28.20;57.10
11126;DHT22;5617;54.046;10.676;2023-06-14T13:29:02;28.30;56.60
11126;DHT22;5617;54.046;10.676;2023-06-14T13:31:10;28.10;56.70
11126;DHT22;5617;54.046;10.676;2023-06-14T13:33:20;28.10;56.80
11126;DHT22;5617;54.046;10.676;2023-06-14T13:35:29;28.00;56.90
11126;DHT22;5617;54.046;10.676;2023-06-14T13:37:41;28.00;56.90
11126;DHT22;5617;54.046;10.676;2023-06-14T13:39:48;28.00;57.20
11126;DHT22;5617;54.046;10.676;2023-06-14T13:41:56;28.10;57.30
11126;DHT22;5617;54.046;10.676;2023-06-14T13:44:07;28.30;57.80
11126;DHT22;5617;54.046;10.676;2023-06-14T13:46:22;28.30;57.30
11126;DHT22;5617;54.046;10.676;2023-06-14T13:48:30;28.20;57.80
11126;DHT22;5617;54.046;10.676;2023-06-14T13:50:38;28.20;57.40